sensor_id;sensor_type;location;lat;lon;timestamp;P1;durP1;ratioP1;P2;durP2;ratioP2
71562;SDS011;59391;52.504;13.438;2023-04-09T00:01:24;43.65;;;23.70;;
71562;SDS011;59391;52.504;13.438;2023-04-09T00:03:50;52.33;;;27.90;;
71562;SDS011;59391;52.504;13.438;2023-04-09T00:06:15;45.63;;;24.83;;
71562;SDS011;59391;52.504;13.438;2023-04-09T00:08:41;44.07;;;23.57;;
71562;SDS011;59391;52.504;13.438;2023-04-09T00:11:07;41.65;;;23.13;;
71562;SDS011;59391;52.504;13.438;2023-04-09T00:13:33;42.95;;;23.55;;
71562;SDS011;59391;52.504;13.438;2023-04-09T00:15:58;39.57;;;22.27;;
71562;SDS011;59391;52.504;13.438;2023-04-09T00:18:24;38.05;;;22.13;;
71562;SDS011;59391;52.504;13.438;2023-04-09T00:20:50;39.35;;;22.65;;
71562;SDS011;59391;52.504;13.438;2023-04-09T00:23:15;42.63;;;21.73;;
71562;SDS011;59391;52.504;13.438;2023-04-09T00:25:41;42.13;;;22.33;;
71562;SDS011;59391;52.504;13.438;2023-04-09T00:28:07;42.00;;;23.55;;
71562;SDS011;59391;52.504;13.438;2023-04-09T00:30:32;43.47;;;23.53;;
71562;SDS011;59391;52.504;13.438;2023-04-09T00:32:58;40.25;;;22.58;;
71562;SDS011;59391;52.504;13.438;2023-04-09T00:35:24;44.50;;;23.25;;
71562;SDS011;59391;52.504;13.438;2023-04-09T00:37:50;40.58;;;23.10;;
71562;SDS011;59391;52.504;13.438;2023-04-09T00:40:16;43.93;;;23.20;;
71562;SDS011;59391;52.504;13.438;2023-04-09T00:42:41;40.28;;;21.73;;
71562;SDS011;59391;52.504;13.438;2023-04-09T00:45:07;43.73;;;22.20;;
71562;SDS011;59391;52.504;13.438;2023-04-09T00:47:34;40.95;;;22.02;;
71562;SDS011;59391;52.504;13.438;2023-04-09T00:50:01;44.90;;;22.67;;
71562;SDS011;59391;52.504;13.438;2023-04-09T00:52:27;41.53;;;23.55;;
71562;SDS011;59391;52.504;13.438;2023-04-09T00:54:58;40.13;;;22.03;;
71562;SDS011;59391;52.504;13.438;2023-04-09T00:57:24;43.08;;;22.00;;
71562;SDS011;59391;52.504;13.438;2023-04-09T00:59:52;43.08;;;21.83;;
71562;SDS011;59391;52.504;13.438;2023-04-09T01:02:18;43.58;;;22.38;;
71562;SDS011;59391;52.504;13.438;2023-04-09T01:04:44;43.80;;;23.33;;
71562;SDS011;59391;52.504;13.438;2023-04-09T01:07:11;44.60;;;23.10;;
71562;SDS011;59391;52.504;13.438;2023-04-09T01:09:52;44.38;;;22.98;;
71562;SDS011;59391;52.504;13.438;2023-04-09T01:20:16;46.88;;;24.95;;
71562;SDS011;59391;52.504;13.438;2023-04-09T01:23:10;44.70;;;23.83;;
71562;SDS011;59391;52.504;13.438;2023-04-09T01:26:06;42.72;;;23.67;;
71562;SDS011;59391;52.504;13.438;2023-04-09T01:28:46;43.90;;;22.73;;
71562;SDS011;59391;52.504;13.438;2023-04-09T01:31:17;46.15;;;23.88;;
71562;SDS011;59391;52.504;13.438;2023-04-09T01:33:49;46.17;;;23.95;;
71562;SDS011;59391;52.504;13.438;2023-04-09T01:36:16;44.28;;;23.70;;
71562;SDS011;59391;52.504;13.438;2023-04-09T01:38:44;43.78;;;23.95;;
71562;SDS011;59391;52.504;13.438;2023-04-09T01:41:16;44.65;;;24.83;;
71562;SDS011;59391;52.504;13.438;2023-04-09T01:43:48;40.83;;;21.30;;
71562;SDS011;59391;52.504;13.438;2023-04-09T01:46:16;44.03;;;24.20;;
71562;SDS011;59391;52.504;13.438;2023-04-09T01:48:44;46.60;;;23.50;;
71562;SDS011;59391;52.504;13.438;2023-04-09T01:51:11;44.03;;;22.67;;
71562;SDS011;59391;52.504;13.438;2023-04-09T01:53:38;37.67;;;20.80;;
71562;SDS011;59391;52.504;13.438;2023-04-09T01:56:05;39.35;;;21.63;;
71562;SDS011;59391;52.504;13.438;2023-04-09T01:58:32;38.75;;;22.30;;
71562;SDS011;59391;52.504;13.438;2023-04-09T02:01:04;36.13;;;19.95;;
71562;SDS011;59391;52.504;13.438;2023-04-09T02:03:55;39.47;;;21.88;;
71562;SDS011;59391;52.504;13.438;2023-04-09T02:06:30;43.57;;;23.57;;
71562;SDS011;59391;52.504;13.438;2023-04-09T02:09:15;42.65;;;23.25;;
71562;SDS011;59391;52.504;13.438;2023-04-09T02:11:45;45.70;;;23.23;;
71562;SDS011;59391;52.504;13.438;2023-04-09T02:14:13;43.60;;;22.40;;
71562;SDS011;59391;52.504;13.438;2023-04-09T02:16:40;43.08;;;22.45;;
71562;SDS011;59391;52.504;13.438;2023-04-09T02:19:06;43.50;;;22.43;;
71562;SDS011;59391;52.504;13.438;2023-04-09T02:21:33;41.72;;;21.60;;
71562;SDS011;59391;52.504;13.438;2023-04-09T02:23:59;46.53;;;23.77;;
71562;SDS011;59391;52.504;13.438;2023-04-09T02:26:24;46.77;;;24.27;;
71562;SDS011;59391;52.504;13.438;2023-04-09T02:28:50;43.38;;;22.75;;
71562;SDS011;59391;52.504;13.438;2023-04-09T02:31:16;43.10;;;21.80;;
71562;SDS011;59391;52.504;13.438;2023-04-09T02:33:41;41.53;;;22.80;;
71562;SDS011;59391;52.504;13.438;2023-04-09T02:36:10;42.40;;;22.83;;
71562;SDS011;59391;52.504;13.438;2023-04-09T02:38:40;41.47;;;22.73;;
71562;SDS011;59391;52.504;13.438;2023-04-09T02:41:06;40.20;;;21.97;;
71562;SDS011;59391;52.504;13.438;2023-04-09T02:43:32;41.47;;;21.75;;
71562;SDS011;59391;52.504;13.438;2023-04-09T02:45:58;41.03;;;21.83;;
71562;SDS011;59391;52.504;13.438;2023-04-09T02:48:24;43.57;;;22.87;;
71562;SDS011;59391;52.504;13.438;2023-04-09T02:50:49;43.45;;;23.58;;
71562;SDS011;59391;52.504;13.438;2023-04-09T02:53:15;43.53;;;22.13;;
71562;SDS011;59391;52.504;13.438;2023-04-09T02:55:40;43.07;;;21.90;;
71562;SDS011;59391;52.504;13.438;2023-04-09T02:58:06;41.80;;;22.17;;
71562;SDS011;59391;52.504;13.438;2023-04-09T03:00:32;39.13;;;20.77;;
71562;SDS011;59391;52.504;13.438;2023-04-09T03:02:57;43.38;;;22.50;;
71562;SDS011;59391;52.504;13.438;2023-04-09T03:05:23;41.20;;;22.47;;
71562;SDS011;59391;52.504;13.438;2023-04-09T03:07:49;40.78;;;22.38;;
71562;SDS011;59391;52.504;13.438;2023-04-09T03:10:15;40.53;;;21.10;;
71562;SDS011;59391;52.504;13.438;2023-04-09T03:12:40;44.00;;;22.10;;
71562;SDS011;59391;52.504;13.438;2023-04-09T03:15:08;43.50;;;22.67;;
71562;SDS011;59391;52.504;13.438;2023-04-09T03:17:34;42.20;;;22.07;;
71562;SDS011;59391;52.504;13.438;2023-04-09T03:20:00;40.40;;;21.83;;
71562;SDS011;59391;52.504;13.438;2023-04-09T03:22:26;40.42;;;20.92;;
71562;SDS011;59391;52.504;13.438;2023-04-09T03:24:52;42.57;;;22.57;;
71562;SDS011;59391;52.504;13.438;2023-04-09T03:27:17;40.03;;;22.33;;
71562;SDS011;59391;52.504;13.438;2023-04-09T03:29:43;48.22;;;24.85;;
71562;SDS011;59391;52.504;13.438;2023-04-09T03:32:08;46.73;;;24.37;;
71562;SDS011;59391;52.504;13.438;2023-04-09T03:34:34;49.10;;;24.25;;
71562;SDS011;59391;52.504;13.438;2023-04-09T03:37:05;46.10;;;23.53;;
71562;SDS011;59391;52.504;13.438;2023-04-09T03:39:31;43.35;;;23.10;;
71562;SDS011;59391;52.504;13.438;2023-04-09T03:41:57;45.70;;;21.90;;
71562;SDS011;59391;52.504;13.438;2023-04-09T03:44:23;43.33;;;22.85;;
71562;SDS011;59391;52.504;13.438;2023-04-09T03:46:49;40.25;;;20.63;;
71562;SDS011;59391;52.504;13.438;2023-04-09T03:49:15;40.77;;;20.67;;
71562;SDS011;59391;52.504;13.438;2023-04-09T03:51:40;39.95;;;21.13;;
71562;SDS011;59391;52.504;13.438;2023-04-09T03:54:06;40.77;;;21.97;;
71562;SDS011;59391;52.504;13.438;2023-04-09T03:56:32;40.70;;;21.35;;
71562;SDS011;59391;52.504;13.438;2023-04-09T03:58:57;39.70;;;21.17;;
71562;SDS011;59391;52.504;13.438;2023-04-09T04:01:23;41.37;;;21.93;;
71562;SDS011;59391;52.504;13.438;2023-04-09T04:03:48;41.15;;;22.48;;
71562;SDS011;59391;52.504;13.438;2023-04-09T04:06:14;42.40;;;23.47;;
71562;SDS011;59391;52.504;13.438;2023-04-09T04:08:40;45.85;;;23.73;;
71562;SDS011;59391;52.504;13.438;2023-04-09T04:11:05;41.00;;;23.50;;
71562;SDS011;59391;52.504;13.438;2023-04-09T04:13:31;42.13;;;23.27;;
71562;SDS011;59391;52.504;13.438;2023-04-09T04:15:57;38.60;;;21.60;;
71562;SDS011;59391;52.504;13.438;2023-04-09T04:18:22;39.30;;;21.73;;
71562;SDS011;59391;52.504;13.438;2023-04-09T04:20:48;37.55;;;20.65;;
71562;SDS011;59391;52.504;13.438;2023-04-09T04:23:13;38.87;;;21.83;;
71562;SDS011;59391;52.504;13.438;2023-04-09T04:25:40;37.92;;;20.98;;
71562;SDS011;59391;52.504;13.438;2023-04-09T04:28:06;36.58;;;20.38;;
71562;SDS011;59391;52.504;13.438;2023-04-09T04:30:32;41.50;;;22.05;;
71562;SDS011;59391;52.504;13.438;2023-04-09T04:32:57;39.70;;;21.00;;
71562;SDS011;59391;52.504;13.438;2023-04-09T04:35:23;39.58;;;20.65;;
71562;SDS011;59391;52.504;13.438;2023-04-09T04:37:49;40.17;;;20.80;;
71562;SDS011;59391;52.504;13.438;2023-04-09T04:40:15;38.85;;;21.15;;
71562;SDS011;59391;52.504;13.438;2023-04-09T04:42:41;42.92;;;20.73;;
71562;SDS011;59391;52.504;13.438;2023-04-09T04:45:07;50.77;;;24.97;;
71562;SDS011;59391;52.504;13.438;2023-04-09T04:47:33;42.97;;;21.90;;
71562;SDS011;59391;52.504;13.438;2023-04-09T04:49:59;46.00;;;22.60;;
71562;SDS011;59391;52.504;13.438;2023-04-09T04:52:25;39.53;;;19.60;;
71562;SDS011;59391;52.504;13.438;2023-04-09T04:54:51;55.95;;;23.50;;
71562;SDS011;59391;52.504;13.438;2023-04-09T04:57:16;46.50;;;20.77;;
71562;SDS011;59391;52.504;13.438;2023-04-09T04:59:42;44.80;;;21.90;;
71562;SDS011;59391;52.504;13.438;2023-04-09T05:02:08;41.38;;;21.00;;
71562;SDS011;59391;52.504;13.438;2023-04-09T05:04:34;42.30;;;21.00;;
71562;SDS011;59391;52.504;13.438;2023-04-09T05:07:00;43.67;;;21.90;;
71562;SDS011;59391;52.504;13.438;2023-04-09T05:09:28;43.63;;;21.35;;
71562;SDS011;59391;52.504;13.438;2023-04-09T05:11:54;42.57;;;20.90;;
71562;SDS011;59391;52.504;13.438;2023-04-09T05:14:21;41.35;;;20.42;;
71562;SDS011;59391;52.504;13.438;2023-04-09T05:16:47;44.25;;;21.67;;
71562;SDS011;59391;52.504;13.438;2023-04-09T05:19:13;46.85;;;23.80;;
71562;SDS011;59391;52.504;13.438;2023-04-09T05:21:38;46.42;;;22.02;;
71562;SDS011;59391;52.504;13.438;2023-04-09T05:24:04;40.80;;;21.50;;
71562;SDS011;59391;52.504;13.438;2023-04-09T05:26:30;39.50;;;19.20;;
71562;SDS011;59391;52.504;13.438;2023-04-09T05:28:56;41.43;;;20.27;;
71562;SDS011;59391;52.504;13.438;2023-04-09T05:31:21;39.40;;;19.17;;
71562;SDS011;59391;52.504;13.438;2023-04-09T05:33:50;46.13;;;20.65;;
71562;SDS011;59391;52.504;13.438;2023-04-09T05:36:17;45.03;;;21.70;;
71562;SDS011;59391;52.504;13.438;2023-04-09T05:38:43;42.20;;;19.55;;
71562;SDS011;59391;52.504;13.438;2023-04-09T05:41:12;42.45;;;19.70;;
71562;SDS011;59391;52.504;13.438;2023-04-09T05:43:38;44.65;;;21.10;;
71562;SDS011;59391;52.504;13.438;2023-04-09T05:46:04;43.38;;;20.45;;
71562;SDS011;59391;52.504;13.438;2023-04-09T05:48:30;39.70;;;19.57;;
71562;SDS011;59391;52.504;13.438;2023-04-09T05:50:58;41.65;;;20.67;;
71562;SDS011;59391;52.504;13.438;2023-04-09T05:53:24;40.38;;;20.58;;
71562;SDS011;59391;52.504;13.438;2023-04-09T05:55:50;41.10;;;19.97;;
71562;SDS011;59391;52.504;13.438;2023-04-09T05:58:16;39.10;;;19.43;;
71562;SDS011;59391;52.504;13.438;2023-04-09T06:00:45;44.75;;;20.45;;
71562;SDS011;59391;52.504;13.438;2023-04-09T06:03:11;45.10;;;21.88;;
71562;SDS011;59391;52.504;13.438;2023-04-09T06:05:37;50.00;;;23.17;;
71562;SDS011;59391;52.504;13.438;2023-04-09T06:08:02;43.58;;;21.33;;
71562;SDS011;59391;52.504;13.438;2023-04-09T06:10:31;45.28;;;21.95;;
71562;SDS011;59391;52.504;13.438;2023-04-09T06:12:57;41.13;;;20.60;;
71562;SDS011;59391;52.504;13.438;2023-04-09T06:15:22;43.20;;;21.77;;
71562;SDS011;59391;52.504;13.438;2023-04-09T06:17:48;43.80;;;21.45;;
71562;SDS011;59391;52.504;13.438;2023-04-09T06:20:13;43.17;;;21.23;;
71562;SDS011;59391;52.504;13.438;2023-04-09T06:22:39;43.45;;;21.48;;
71562;SDS011;59391;52.504;13.438;2023-04-09T06:25:05;44.30;;;21.43;;
71562;SDS011;59391;52.504;13.438;2023-04-09T06:27:31;41.53;;;20.30;;
71562;SDS011;59391;52.504;13.438;2023-04-09T06:29:57;41.97;;;20.67;;
71562;SDS011;59391;52.504;13.438;2023-04-09T06:32:22;41.97;;;20.70;;
71562;SDS011;59391;52.504;13.438;2023-04-09T06:34:48;42.57;;;21.43;;
71562;SDS011;59391;52.504;13.438;2023-04-09T06:37:14;41.83;;;20.40;;
71562;SDS011;59391;52.504;13.438;2023-04-09T06:39:39;42.03;;;20.10;;
71562;SDS011;59391;52.504;13.438;2023-04-09T06:42:05;43.85;;;22.23;;
71562;SDS011;59391;52.504;13.438;2023-04-09T06:44:34;43.92;;;20.70;;
71562;SDS011;59391;52.504;13.438;2023-04-09T06:47:00;47.03;;;22.10;;
71562;SDS011;59391;52.504;13.438;2023-04-09T06:49:26;45.78;;;23.38;;
71562;SDS011;59391;52.504;13.438;2023-04-09T06:51:51;42.53;;;21.53;;
71562;SDS011;59391;52.504;13.438;2023-04-09T06:54:18;43.92;;;22.55;;
71562;SDS011;59391;52.504;13.438;2023-04-09T06:56:44;42.88;;;21.27;;
71562;SDS011;59391;52.504;13.438;2023-04-09T06:59:10;45.63;;;22.20;;
71562;SDS011;59391;52.504;13.438;2023-04-09T07:01:36;40.63;;;21.17;;
71562;SDS011;59391;52.504;13.438;2023-04-09T07:04:02;41.73;;;21.07;;
71562;SDS011;59391;52.504;13.438;2023-04-09T07:06:29;39.60;;;20.52;;
71562;SDS011;59391;52.504;13.438;2023-04-09T07:08:55;41.78;;;22.13;;
71562;SDS011;59391;52.504;13.438;2023-04-09T07:11:29;41.83;;;21.58;;
71562;SDS011;59391;52.504;13.438;2023-04-09T07:13:55;44.13;;;21.47;;
71562;SDS011;59391;52.504;13.438;2023-04-09T07:16:21;41.97;;;21.67;;
71562;SDS011;59391;52.504;13.438;2023-04-09T07:18:46;42.10;;;22.30;;
71562;SDS011;59391;52.504;13.438;2023-04-09T07:21:12;40.03;;;21.53;;
71562;SDS011;59391;52.504;13.438;2023-04-09T07:23:37;41.03;;;21.95;;
71562;SDS011;59391;52.504;13.438;2023-04-09T07:26:05;48.60;;;23.73;;
71562;SDS011;59391;52.504;13.438;2023-04-09T07:28:31;42.77;;;22.50;;
71562;SDS011;59391;52.504;13.438;2023-04-09T07:30:57;41.10;;;21.20;;
71562;SDS011;59391;52.504;13.438;2023-04-09T07:33:26;42.65;;;22.45;;
71562;SDS011;59391;52.504;13.438;2023-04-09T07:35:53;42.17;;;21.77;;
71562;SDS011;59391;52.504;13.438;2023-04-09T07:38:18;38.45;;;21.08;;
71562;SDS011;59391;52.504;13.438;2023-04-09T07:40:44;40.37;;;22.20;;
71562;SDS011;59391;52.504;13.438;2023-04-09T07:43:10;44.08;;;22.02;;
71562;SDS011;59391;52.504;13.438;2023-04-09T07:45:35;44.47;;;21.90;;
71562;SDS011;59391;52.504;13.438;2023-04-09T07:48:01;44.30;;;21.67;;
71562;SDS011;59391;52.504;13.438;2023-04-09T07:50:27;43.45;;;22.25;;
71562;SDS011;59391;52.504;13.438;2023-04-09T07:52:53;42.38;;;21.73;;
71562;SDS011;59391;52.504;13.438;2023-04-09T07:55:19;43.90;;;22.87;;
71562;SDS011;59391;52.504;13.438;2023-04-09T07:57:45;37.78;;;19.52;;
71562;SDS011;59391;52.504;13.438;2023-04-09T08:00:10;42.07;;;21.43;;
71562;SDS011;59391;52.504;13.438;2023-04-09T08:02:36;37.28;;;19.75;;
71562;SDS011;59391;52.504;13.438;2023-04-09T08:05:02;37.87;;;21.20;;
71562;SDS011;59391;52.504;13.438;2023-04-09T08:07:28;36.03;;;19.27;;
71562;SDS011;59391;52.504;13.438;2023-04-09T08:09:54;38.80;;;20.00;;
71562;SDS011;59391;52.504;13.438;2023-04-09T08:12:20;37.17;;;18.73;;
71562;SDS011;59391;52.504;13.438;2023-04-09T08:14:45;38.03;;;19.88;;
71562;SDS011;59391;52.504;13.438;2023-04-09T08:17:11;39.17;;;20.50;;
71562;SDS011;59391;52.504;13.438;2023-04-09T08:19:37;37.92;;;20.45;;
71562;SDS011;59391;52.504;13.438;2023-04-09T08:22:02;35.33;;;19.23;;
71562;SDS011;59391;52.504;13.438;2023-04-09T08:24:28;39.37;;;21.13;;
71562;SDS011;59391;52.504;13.438;2023-04-09T08:26:53;40.15;;;20.23;;
71562;SDS011;59391;52.504;13.438;2023-04-09T08:29:20;40.42;;;21.58;;
71562;SDS011;59391;52.504;13.438;2023-04-09T08:31:46;37.47;;;20.20;;
71562;SDS011;59391;52.504;13.438;2023-04-09T08:34:12;37.63;;;20.63;;
71562;SDS011;59391;52.504;13.438;2023-04-09T08:36:39;37.03;;;19.50;;
71562;SDS011;59391;52.504;13.438;2023-04-09T08:39:09;37.92;;;19.73;;
71562;SDS011;59391;52.504;13.438;2023-04-09T08:41:34;40.50;;;21.13;;
71562;SDS011;59391;52.504;13.438;2023-04-09T08:44:07;36.95;;;20.42;;
71562;SDS011;59391;52.504;13.438;2023-04-09T08:46:34;38.28;;;19.85;;
71562;SDS011;59391;52.504;13.438;2023-04-09T08:49:00;40.33;;;21.92;;
71562;SDS011;59391;52.504;13.438;2023-04-09T08:51:26;42.37;;;21.53;;
71562;SDS011;59391;52.504;13.438;2023-04-09T08:53:56;41.38;;;21.63;;
71562;SDS011;59391;52.504;13.438;2023-04-09T08:56:24;40.28;;;21.42;;
71562;SDS011;59391;52.504;13.438;2023-04-09T08:58:51;38.28;;;20.60;;
71562;SDS011;59391;52.504;13.438;2023-04-09T09:03:51;41.47;;;21.88;;
71562;SDS011;59391;52.504;13.438;2023-04-09T09:06:27;39.30;;;21.70;;
71562;SDS011;59391;52.504;13.438;2023-04-09T09:09:06;39.00;;;21.00;;
71562;SDS011;59391;52.504;13.438;2023-04-09T09:11:39;40.42;;;21.17;;
71562;SDS011;59391;52.504;13.438;2023-04-09T09:14:07;39.78;;;21.00;;
71562;SDS011;59391;52.504;13.438;2023-04-09T09:16:37;36.90;;;20.92;;
71562;SDS011;59391;52.504;13.438;2023-04-09T09:19:30;38.85;;;20.83;;
71562;SDS011;59391;52.504;13.438;2023-04-09T09:22:02;40.78;;;21.48;;
71562;SDS011;59391;52.504;13.438;2023-04-09T09:24:30;37.35;;;20.35;;
71562;SDS011;59391;52.504;13.438;2023-04-09T09:26:59;39.78;;;22.25;;
71562;SDS011;59391;52.504;13.438;2023-04-09T09:29:26;41.80;;;24.15;;
71562;SDS011;59391;52.504;13.438;2023-04-09T09:31:53;40.22;;;21.90;;
71562;SDS011;59391;52.504;13.438;2023-04-09T09:34:21;35.55;;;21.10;;
71562;SDS011;59391;52.504;13.438;2023-04-09T09:36:49;37.75;;;21.42;;
71562;SDS011;59391;52.504;13.438;2023-04-09T09:39:15;40.27;;;22.13;;
71562;SDS011;59391;52.504;13.438;2023-04-09T09:41:42;38.72;;;23.40;;
71562;SDS011;59391;52.504;13.438;2023-04-09T09:44:11;41.13;;;24.98;;
71562;SDS011;59391;52.504;13.438;2023-04-09T09:46:55;43.58;;;24.67;;
71562;SDS011;59391;52.504;13.438;2023-04-09T09:49:22;40.58;;;24.67;;
71562;SDS011;59391;52.504;13.438;2023-04-09T09:51:48;42.05;;;24.38;;
71562;SDS011;59391;52.504;13.438;2023-04-09T09:54:17;36.83;;;21.70;;
71562;SDS011;59391;52.504;13.438;2023-04-09T09:56:49;38.55;;;23.13;;
71562;SDS011;59391;52.504;13.438;2023-04-09T09:59:21;33.17;;;19.85;;
71562;SDS011;59391;52.504;13.438;2023-04-09T10:01:59;35.92;;;21.95;;
71562;SDS011;59391;52.504;13.438;2023-04-09T10:04:30;34.38;;;20.67;;
71562;SDS011;59391;52.504;13.438;2023-04-09T10:07:03;36.35;;;22.38;;
71562;SDS011;59391;52.504;13.438;2023-04-09T10:09:31;36.65;;;23.00;;
71562;SDS011;59391;52.504;13.438;2023-04-09T10:12:01;35.22;;;22.55;;
71562;SDS011;59391;52.504;13.438;2023-04-09T10:14:31;33.80;;;20.48;;
71562;SDS011;59391;52.504;13.438;2023-04-09T10:16:59;31.88;;;19.88;;
71562;SDS011;59391;52.504;13.438;2023-04-09T10:19:27;30.23;;;18.70;;
71562;SDS011;59391;52.504;13.438;2023-04-09T10:21:56;31.95;;;20.52;;
71562;SDS011;59391;52.504;13.438;2023-04-09T10:24:32;30.88;;;18.67;;
71562;SDS011;59391;52.504;13.438;2023-04-09T10:27:09;29.90;;;18.15;;
71562;SDS011;59391;52.504;13.438;2023-04-09T10:29:43;31.90;;;19.33;;
71562;SDS011;59391;52.504;13.438;2023-04-09T10:32:11;34.17;;;21.35;;
71562;SDS011;59391;52.504;13.438;2023-04-09T10:34:48;32.20;;;19.70;;
71562;SDS011;59391;52.504;13.438;2023-04-09T10:37:21;34.58;;;21.65;;
71562;SDS011;59391;52.504;13.438;2023-04-09T10:39:50;31.42;;;20.42;;
71562;SDS011;59391;52.504;13.438;2023-04-09T10:42:17;32.10;;;20.33;;
71562;SDS011;59391;52.504;13.438;2023-04-09T10:45:02;32.25;;;20.30;;
71562;SDS011;59391;52.504;13.438;2023-04-09T10:47:31;27.05;;;17.80;;
71562;SDS011;59391;52.504;13.438;2023-04-09T10:52:45;28.65;;;16.85;;
71562;SDS011;59391;52.504;13.438;2023-04-09T10:58:10;25.80;;;17.42;;
71562;SDS011;59391;52.504;13.438;2023-04-09T11:00:40;26.00;;;16.75;;
71562;SDS011;59391;52.504;13.438;2023-04-09T11:06:08;26.30;;;16.40;;
71562;SDS011;59391;52.504;13.438;2023-04-09T11:08:35;24.13;;;15.88;;
71562;SDS011;59391;52.504;13.438;2023-04-09T11:11:02;25.42;;;16.05;;
71562;SDS011;59391;52.504;13.438;2023-04-09T11:13:29;27.33;;;17.60;;
71562;SDS011;59391;52.504;13.438;2023-04-09T11:15:56;26.87;;;16.97;;
71562;SDS011;59391;52.504;13.438;2023-04-09T11:18:23;25.30;;;16.23;;
71562;SDS011;59391;52.504;13.438;2023-04-09T11:20:56;26.13;;;16.27;;
71562;SDS011;59391;52.504;13.438;2023-04-09T11:23:25;25.63;;;15.68;;
71562;SDS011;59391;52.504;13.438;2023-04-09T11:25:52;27.98;;;17.45;;
71562;SDS011;59391;52.504;13.438;2023-04-09T11:28:18;25.03;;;15.97;;
71562;SDS011;59391;52.504;13.438;2023-04-09T11:30:44;25.20;;;16.23;;
71562;SDS011;59391;52.504;13.438;2023-04-09T11:33:11;24.40;;;15.93;;
71562;SDS011;59391;52.504;13.438;2023-04-09T11:35:37;24.58;;;15.65;;
71562;SDS011;59391;52.504;13.438;2023-04-09T11:38:07;22.83;;;15.13;;
71562;SDS011;59391;52.504;13.438;2023-04-09T11:40:34;23.08;;;15.20;;
71562;SDS011;59391;52.504;13.438;2023-04-09T11:43:01;22.65;;;14.63;;
71562;SDS011;59391;52.504;13.438;2023-04-09T11:45:27;23.02;;;15.65;;
71562;SDS011;59391;52.504;13.438;2023-04-09T11:47:55;23.10;;;15.65;;
71562;SDS011;59391;52.504;13.438;2023-04-09T11:50:21;24.00;;;16.20;;
71562;SDS011;59391;52.504;13.438;2023-04-09T11:52:47;22.90;;;15.05;;
71562;SDS011;59391;52.504;13.438;2023-04-09T11:55:26;23.95;;;15.73;;
71562;SDS011;59391;52.504;13.438;2023-04-09T11:57:57;23.05;;;14.50;;
71562;SDS011;59391;52.504;13.438;2023-04-09T12:00:27;21.83;;;14.43;;
71562;SDS011;59391;52.504;13.438;2023-04-09T12:03:03;25.17;;;16.60;;
71562;SDS011;59391;52.504;13.438;2023-04-09T12:05:33;25.98;;;16.83;;
71562;SDS011;59391;52.504;13.438;2023-04-09T12:08:03;23.73;;;15.50;;
71562;SDS011;59391;52.504;13.438;2023-04-09T12:10:33;22.83;;;15.07;;
71562;SDS011;59391;52.504;13.438;2023-04-09T12:13:01;22.38;;;15.20;;
71562;SDS011;59391;52.504;13.438;2023-04-09T12:15:31;23.77;;;15.60;;
71562;SDS011;59391;52.504;13.438;2023-04-09T12:17:59;22.98;;;14.82;;
71562;SDS011;59391;52.504;13.438;2023-04-09T12:23:08;25.30;;;15.50;;
71562;SDS011;59391;52.504;13.438;2023-04-09T12:25:36;23.13;;;15.23;;
71562;SDS011;59391;52.504;13.438;2023-04-09T12:28:07;22.43;;;14.23;;
71562;SDS011;59391;52.504;13.438;2023-04-09T12:30:36;22.02;;;14.18;;
71562;SDS011;59391;52.504;13.438;2023-04-09T12:33:02;21.35;;;13.90;;
71562;SDS011;59391;52.504;13.438;2023-04-09T12:35:28;27.52;;;18.83;;
71562;SDS011;59391;52.504;13.438;2023-04-09T12:37:54;21.63;;;14.77;;
71562;SDS011;59391;52.504;13.438;2023-04-09T12:40:20;22.42;;;15.18;;
71562;SDS011;59391;52.504;13.438;2023-04-09T12:42:46;25.87;;;16.37;;
71562;SDS011;59391;52.504;13.438;2023-04-09T12:45:13;22.50;;;15.23;;
71562;SDS011;59391;52.504;13.438;2023-04-09T12:47:40;23.30;;;15.00;;
71562;SDS011;59391;52.504;13.438;2023-04-09T12:50:07;23.10;;;15.10;;
71562;SDS011;59391;52.504;13.438;2023-04-09T12:52:35;21.90;;;14.65;;
71562;SDS011;59391;52.504;13.438;2023-04-09T12:55:01;22.67;;;15.13;;
71562;SDS011;59391;52.504;13.438;2023-04-09T12:57:28;20.70;;;14.00;;
71562;SDS011;59391;52.504;13.438;2023-04-09T12:59:54;22.48;;;14.57;;
71562;SDS011;59391;52.504;13.438;2023-04-09T13:02:20;21.23;;;13.98;;
71562;SDS011;59391;52.504;13.438;2023-04-09T13:04:47;21.75;;;14.40;;
71562;SDS011;59391;52.504;13.438;2023-04-09T13:07:15;21.58;;;13.80;;
71562;SDS011;59391;52.504;13.438;2023-04-09T13:09:44;19.50;;;13.47;;
71562;SDS011;59391;52.504;13.438;2023-04-09T13:12:11;23.95;;;14.98;;
71562;SDS011;59391;52.504;13.438;2023-04-09T13:14:38;21.80;;;14.82;;
71562;SDS011;59391;52.504;13.438;2023-04-09T13:17:04;20.63;;;13.87;;
71562;SDS011;59391;52.504;13.438;2023-04-09T13:19:30;21.95;;;14.48;;
71562;SDS011;59391;52.504;13.438;2023-04-09T13:21:56;22.50;;;14.70;;
71562;SDS011;59391;52.504;13.438;2023-04-09T13:24:22;20.98;;;14.75;;
71562;SDS011;59391;52.504;13.438;2023-04-09T13:26:47;20.67;;;13.93;;
71562;SDS011;59391;52.504;13.438;2023-04-09T13:29:13;30.45;;;20.63;;
71562;SDS011;59391;52.504;13.438;2023-04-09T13:31:39;25.50;;;16.03;;
71562;SDS011;59391;52.504;13.438;2023-04-09T13:34:05;22.20;;;14.88;;
71562;SDS011;59391;52.504;13.438;2023-04-09T13:36:31;22.63;;;15.00;;
71562;SDS011;59391;52.504;13.438;2023-04-09T13:38:56;21.17;;;13.80;;
71562;SDS011;59391;52.504;13.438;2023-04-09T13:41:28;22.23;;;14.15;;
71562;SDS011;59391;52.504;13.438;2023-04-09T13:43:56;20.10;;;13.95;;
71562;SDS011;59391;52.504;13.438;2023-04-09T13:46:22;20.67;;;13.90;;
71562;SDS011;59391;52.504;13.438;2023-04-09T13:48:47;21.15;;;15.05;;
71562;SDS011;59391;52.504;13.438;2023-04-09T13:51:13;21.87;;;14.23;;
71562;SDS011;59391;52.504;13.438;2023-04-09T13:53:39;23.05;;;15.32;;
71562;SDS011;59391;52.504;13.438;2023-04-09T13:56:05;22.97;;;16.17;;
71562;SDS011;59391;52.504;13.438;2023-04-09T13:58:31;24.67;;;16.98;;
71562;SDS011;59391;52.504;13.438;2023-04-09T14:00:56;23.00;;;14.60;;
71562;SDS011;59391;52.504;13.438;2023-04-09T14:03:22;21.63;;;14.07;;
71562;SDS011;59391;52.504;13.438;2023-04-09T14:05:48;23.30;;;15.67;;
71562;SDS011;59391;52.504;13.438;2023-04-09T14:08:14;21.27;;;14.87;;
71562;SDS011;59391;52.504;13.438;2023-04-09T14:10:40;23.53;;;14.87;;
71562;SDS011;59391;52.504;13.438;2023-04-09T14:13:06;22.35;;;14.23;;
71562;SDS011;59391;52.504;13.438;2023-04-09T14:15:34;21.27;;;13.63;;
71562;SDS011;59391;52.504;13.438;2023-04-09T14:18:00;19.85;;;13.45;;
71562;SDS011;59391;52.504;13.438;2023-04-09T14:20:26;20.27;;;13.17;;
71562;SDS011;59391;52.504;13.438;2023-04-09T14:22:52;21.90;;;14.60;;
71562;SDS011;59391;52.504;13.438;2023-04-09T14:25:18;22.17;;;14.88;;
71562;SDS011;59391;52.504;13.438;2023-04-09T14:27:44;20.37;;;13.57;;
71562;SDS011;59391;52.504;13.438;2023-04-09T14:30:10;21.52;;;13.90;;
71562;SDS011;59391;52.504;13.438;2023-04-09T14:32:37;20.48;;;14.05;;